createdAt,value
2018-01-05T00:04:30.126Z,8.24
2018-01-05T00:10:33.678Z,8.28
2018-01-05T00:16:37.101Z,8.22
2018-01-05T00:22:41.392Z,8.05
2018-01-05T00:28:45.701Z,7.98
2018-01-05T00:34:50.001Z,7.93
2018-01-05T00:40:53.847Z,7.88
2018-01-05T00:46:58.749Z,7.88
2018-01-05T00:53:02.995Z,7.91
2018-01-05T00:59:06.510Z,7.86
2018-01-05T01:05:10.012Z,7.84
2018-01-05T01:11:13.511Z,7.92
2018-01-05T01:17:16.945Z,7.96
2018-01-05T01:23:21.231Z,7.99
2018-01-05T01:29:26.056Z,7.87
2018-01-05T01:35:29.991Z,7.87
2018-01-05T01:41:34.235Z,7.77
2018-01-05T01:47:38.474Z,7.72
2018-01-05T01:53:42.014Z,7.60
2018-01-05T01:59:45.511Z,7.69
2018-01-05T02:05:49.722Z,7.75
2018-01-05T02:11:53.939Z,7.82
2018-01-05T02:17:57.943Z,7.77
2018-01-05T02:24:01.461Z,7.74
2018-01-05T02:30:04.997Z,7.61
2018-01-05T02:36:08.504Z,7.57
2018-01-05T02:42:12.143Z,7.63
2018-01-05T02:48:16.484Z,7.62
2018-01-05T02:54:20.141Z,7.65
2018-01-05T03:00:24.210Z,7.51
2018-01-05T03:06:27.739Z,7.42
2018-01-05T03:12:31.426Z,7.40
2018-01-05T03:18:35.709Z,7.26
2018-01-05T03:24:39.272Z,7.01
2018-01-05T03:30:43.515Z,6.88
2018-01-05T03:36:47.016Z,6.77
2018-01-05T03:42:51.655Z,6.60
2018-01-05T03:48:57.029Z,6.46
2018-01-05T03:55:00.516Z,6.63
2018-01-05T04:01:03.954Z,6.56
2018-01-05T04:07:07.514Z,6.64
2018-01-05T04:13:11.797Z,6.64
2018-01-05T04:19:15.256Z,6.70
2018-01-05T04:25:18.783Z,6.71
2018-01-05T04:31:22.209Z,6.70
2018-01-05T04:37:25.965Z,6.75
2018-01-05T04:43:29.423Z,6.70
2018-01-05T04:49:32.869Z,6.76
2018-01-05T04:55:36.298Z,6.90
2018-01-05T05:01:40.702Z,7.08
2018-01-05T05:07:44.288Z,7.13
2018-01-05T05:13:47.903Z,6.81
2018-01-05T05:19:51.365Z,6.55
2018-01-05T05:25:55.718Z,6.47
2018-01-05T05:31:59.477Z,6.46
2018-01-05T05:38:03.247Z,6.50
2018-01-05T05:44:06.762Z,6.50
2018-01-05T05:50:10.355Z,6.50
2018-01-05T05:56:14.071Z,6.47
2018-01-05T06:02:17.602Z,6.37
2018-01-05T06:08:21.164Z,6.57
2018-01-05T06:14:25.121Z,6.70
2018-01-05T06:20:28.863Z,6.69
2018-01-05T06:26:32.332Z,6.72
2018-01-05T06:32:35.985Z,6.68
2018-01-05T06:38:39.443Z,6.63
2018-01-05T06:44:43.109Z,6.51
2018-01-05T06:50:46.843Z,6.43
2018-01-05T06:56:50.328Z,6.34
2018-01-05T07:02:54.338Z,6.27
2018-01-05T07:08:58.178Z,6.37
2018-01-05T07:15:01.646Z,6.48
2018-01-05T07:21:06.132Z,6.53
2018-01-05T07:27:10.319Z,6.63
2018-01-05T07:33:14.126Z,6.72
2018-01-05T07:39:17.547Z,6.78
2018-01-05T07:45:21.161Z,6.70
2018-01-05T07:51:25.383Z,6.77
2018-01-05T07:57:28.849Z,6.84
2018-01-05T08:03:32.386Z,6.91
2018-01-05T08:09:35.842Z,6.95
2018-01-05T08:15:39.443Z,7.02
2018-01-05T08:21:42.894Z,7.22
2018-01-05T08:27:46.337Z,7.30
2018-01-05T08:33:49.770Z,7.42
2018-01-05T08:39:53.533Z,7.48
2018-01-05T08:45:57.238Z,7.52
2018-01-05T08:52:01.774Z,7.57
2018-01-05T08:58:05.238Z,7.66
2018-01-05T09:04:08.859Z,7.66
2018-01-05T09:10:12.313Z,7.61
2018-01-05T09:16:15.782Z,7.60
2018-01-05T09:22:19.346Z,7.63
2018-01-05T09:28:22.783Z,7.86
2018-01-05T09:34:27.059Z,8.09
2018-01-05T09:40:30.500Z,8.27
2018-01-05T09:46:33.984Z,8.36
2018-01-05T09:52:37.508Z,8.46
2018-01-05T09:58:41.054Z,8.53
2018-01-05T10:04:44.656Z,8.45
2018-01-05T10:10:48.706Z,8.36
2018-01-05T10:16:52.146Z,8.32
2018-01-05T10:22:56.549Z,8.30
2018-01-05T10:29:00.239Z,8.09
2018-01-05T10:35:03.813Z,7.81
2018-01-05T10:41:07.281Z,7.78
2018-01-05T10:47:10.785Z,7.90
2018-01-05T10:53:14.222Z,8.02
2018-01-05T10:59:17.850Z,8.11
2018-01-05T11:05:21.292Z,8.13
2018-01-05T11:11:24.969Z,8.24
2018-01-05T11:17:28.662Z,8.38
2018-01-05T11:23:32.847Z,8.56
2018-01-05T11:29:36.326Z,8.79
2018-01-05T11:35:40.136Z,9.12
2018-01-05T11:41:43.584Z,9.16
2018-01-05T11:47:47.358Z,9.23
2018-01-05T11:53:50.931Z,9.16
2018-01-05T11:59:55.292Z,9.20
2018-01-05T12:05:59.895Z,9.28
2018-01-05T12:12:04.264Z,9.37
2018-01-05T12:18:08.654Z,9.36
2018-01-05T12:24:12.935Z,9.48
2018-01-05T12:30:16.450Z,9.50
2018-01-05T12:36:20.105Z,9.40
2018-01-05T12:42:24.694Z,9.41
2018-01-05T12:48:29.697Z,9.38
2018-01-05T12:54:34.145Z,9.37
2018-01-05T13:00:37.594Z,9.25
2018-01-05T13:06:41.026Z,9.21
2018-01-05T13:12:44.541Z,9.13
2018-01-05T13:18:48.062Z,9.09
2018-01-05T13:24:51.636Z,9.07
2018-01-05T13:30:56.092Z,9.10
2018-01-05T13:36:59.661Z,9.03
2018-01-05T13:43:04.110Z,8.97
2018-01-05T13:49:07.653Z,8.91
2018-01-05T13:55:11.231Z,8.84
2018-01-05T14:01:14.732Z,8.74
2018-01-05T14:07:18.381Z,8.60
2018-01-05T14:13:21.908Z,8.57
2018-01-05T14:19:25.630Z,8.55
2018-01-05T14:25:29.313Z,8.50
2018-01-05T14:31:32.835Z,8.36
2018-01-05T14:37:36.340Z,8.14
2018-01-05T14:43:40.553Z,8.31
2018-01-05T14:49:44.013Z,8.33
2018-01-05T14:55:47.712Z,8.24
2018-01-05T15:01:51.210Z,7.93
2018-01-05T15:07:54.950Z,7.62
2018-01-05T15:13:58.766Z,7.39
2018-01-05T15:20:02.215Z,7.05
2018-01-05T15:26:05.708Z,6.86
2018-01-05T15:32:09.231Z,6.70
2018-01-05T15:38:12.767Z,6.65
2018-01-05T15:44:16.280Z,6.56
2018-01-05T15:50:19.742Z,6.51
2018-01-05T15:56:23.175Z,6.29
2018-01-05T16:02:27.506Z,6.23
2018-01-05T16:08:30.968Z,6.17
2018-01-05T16:14:34.562Z,6.12
2018-01-05T16:20:38.882Z,6.05
2018-01-05T16:26:42.415Z,5.96
2018-01-05T16:32:45.928Z,5.86
2018-01-05T16:38:49.458Z,5.53
2018-01-05T16:44:53.320Z,5.31
2018-01-05T16:50:56.980Z,5.19
2018-01-05T16:57:00.727Z,5.15
2018-01-05T17:03:04.230Z,5.07
2018-01-05T17:09:07.835Z,5.09
2018-01-05T17:15:11.303Z,5.06
2018-01-05T17:21:14.887Z,5.09
2018-01-05T17:27:18.419Z,5.08
2018-01-05T17:33:21.858Z,5.15
2018-01-05T17:39:26.251Z,5.25
2018-01-05T17:45:30.517Z,5.27
2018-01-05T17:51:33.952Z,5.25
2018-01-05T17:57:37.419Z,5.19
2018-01-05T18:03:40.979Z,5.24
2018-01-05T18:09:44.527Z,5.23
2018-01-05T18:15:48.027Z,5.24
2018-01-05T18:21:52.395Z,5.24
2018-01-05T18:27:56.505Z,5.22
2018-01-05T18:34:00.089Z,5.31
2018-01-05T18:40:03.710Z,5.32
2018-01-05T18:46:07.334Z,5.31
2018-01-05T18:52:11.686Z,5.33
2018-01-05T18:58:15.207Z,5.36
2018-01-05T19:04:18.733Z,5.55
2018-01-05T19:10:23.164Z,5.75
2018-01-05T19:16:27.288Z,5.81
2018-01-05T19:22:30.997Z,5.64
2018-01-05T19:28:35.285Z,5.45
2018-01-05T19:34:38.781Z,5.29
2018-01-05T19:40:42.276Z,5.50
2018-01-05T19:46:45.854Z,5.64
2018-01-05T19:52:49.454Z,5.76
2018-01-05T19:58:53.419Z,5.64
2018-01-05T20:04:57.363Z,5.61
2018-01-05T20:11:00.914Z,5.47
2018-01-05T20:17:04.412Z,5.45
2018-01-05T20:23:07.906Z,5.33
2018-01-05T20:29:12.239Z,5.30
2018-01-05T20:35:16.567Z,5.37
2018-01-05T20:41:20.360Z,5.53
2018-01-05T20:47:24.147Z,5.37
2018-01-05T20:53:28.460Z,5.47
2018-01-05T20:59:32.263Z,5.33
2018-01-05T21:05:35.936Z,5.33
2018-01-05T21:11:39.367Z,5.47
2018-01-05T21:17:42.942Z,5.65
2018-01-05T21:23:46.430Z,5.80
2018-01-05T21:29:50.709Z,5.97
2018-01-05T21:35:55.344Z,6.06
2018-01-05T21:41:58.926Z,6.03
2018-01-05T21:48:02.432Z,5.98
2018-01-05T21:54:05.897Z,6.06
2018-01-05T22:00:09.645Z,6.03
2018-01-05T22:06:13.255Z,6.10
2018-01-05T22:12:16.774Z,6.20
2018-01-05T22:18:20.253Z,6.26
2018-01-05T22:24:24.454Z,6.25
2018-01-05T22:30:29.249Z,6.23
2018-01-05T22:36:32.819Z,6.31
2018-01-05T22:42:36.407Z,6.29
2018-01-05T22:48:39.931Z,6.29
2018-01-05T22:54:43.667Z,6.39
2018-01-05T23:00:47.275Z,6.38
2018-01-05T23:06:50.886Z,6.32
2018-01-05T23:12:55.014Z,6.12
2018-01-05T23:18:58.751Z,6.31
2018-01-05T23:25:02.430Z,6.09
2018-01-05T23:31:07.549Z,6.06
2018-01-05T23:37:12.028Z,6.04
2018-01-05T23:43:15.524Z,5.96
2018-01-05T23:49:19.233Z,5.61
2018-01-05T23:55:22.708Z,5.43
